createdAt,value
2023-01-02T00:00:33.729Z,8.37
2023-01-02T00:03:00.802Z,8.12
2023-01-02T00:05:27.995Z,7.82
2023-01-02T00:07:55.208Z,7.54
2023-01-02T00:10:22.289Z,7.31
2023-01-02T00:12:49.259Z,7.76
2023-01-02T00:15:16.337Z,8.28
2023-01-02T00:17:43.303Z,8.31
2023-01-02T00:20:10.520Z,8.09
2023-01-02T00:22:37.578Z,7.75
2023-01-02T00:25:05.305Z,7.44
2023-01-02T00:27:32.450Z,7.16
2023-01-02T00:29:59.801Z,6.88
2023-01-02T00:32:26.999Z,7.30
2023-01-02T00:34:54.047Z,7.83
2023-01-02T00:37:21.704Z,7.89
2023-01-02T00:39:48.701Z,7.68
2023-01-02T00:42:15.616Z,7.41
2023-01-02T00:44:44.599Z,7.15
2023-01-02T00:47:11.958Z,6.89
2023-01-02T00:49:38.897Z,7.24
2023-01-02T00:52:07.614Z,7.79
2023-01-02T00:54:34.447Z,7.85
2023-01-02T00:57:01.328Z,7.66
2023-01-02T00:59:28.302Z,7.39
2023-01-02T01:01:55.373Z,7.14
2023-01-02T01:04:22.253Z,6.91
2023-01-02T01:06:50.563Z,7.40
2023-01-02T01:09:18.252Z,8.02
2023-01-02T01:11:45.367Z,8.08
2023-01-02T01:14:12.568Z,7.87
2023-01-02T01:16:40.284Z,7.60
2023-01-02T01:19:07.311Z,7.32
2023-01-02T01:21:34.207Z,7.02
2023-01-02T01:24:01.054Z,7.41
2023-01-02T01:26:27.929Z,7.97
2023-01-02T01:28:55.509Z,8.03
2023-01-02T01:31:22.846Z,7.83
2023-01-02T01:33:50.028Z,7.55
2023-01-02T01:36:19.475Z,7.25
2023-01-02T01:38:46.686Z,6.95
2023-01-02T01:41:17.312Z,7.31
2023-01-02T01:43:50.403Z,7.82
2023-01-02T01:46:38.676Z,7.83
2023-01-02T01:49:07.035Z,7.55
2023-01-02T01:51:35.651Z,7.26
2023-01-02T01:54:06.302Z,6.97
2023-01-02T01:56:35.713Z,6.67
2023-01-02T01:59:02.568Z,7.09
2023-01-02T02:01:29.904Z,7.60
2023-01-02T02:03:56.991Z,7.60
2023-01-02T02:06:24.363Z,7.35
2023-01-02T02:08:59.667Z,7.07
2023-01-02T02:11:26.794Z,6.79
2023-01-02T02:13:59.817Z,6.49
2023-01-02T02:16:29.012Z,6.88
2023-01-02T02:19:17.091Z,7.40
2023-01-02T02:21:56.288Z,7.41
2023-01-02T02:24:44.451Z,7.15
2023-01-02T02:27:36.336Z,6.76
2023-01-02T02:30:14.904Z,6.39
2023-01-02T02:32:57.373Z,6.11
2023-01-02T02:35:49.332Z,6.68
2023-01-02T02:38:50.492Z,7.27
2023-01-02T02:41:29.297Z,7.18
2023-01-02T02:44:33.198Z,6.87
2023-01-02T02:47:02.075Z,6.52
2023-01-02T02:49:48.899Z,6.24
2023-01-02T02:52:46.772Z,5.94
2023-01-02T02:55:30.086Z,6.66
2023-01-02T02:57:57.261Z,7.19
2023-01-02T03:00:24.425Z,7.14
2023-01-02T03:02:51.441Z,6.89
2023-01-02T03:05:37.957Z,6.63
2023-01-02T03:08:16.875Z,6.34
2023-01-02T03:10:56.838Z,6.04
2023-01-02T03:13:40.818Z,6.57
2023-01-02T03:16:13.171Z,7.11
2023-01-02T03:19:03.717Z,7.07
2023-01-02T03:21:33.343Z,6.79
2023-01-02T03:24:02.383Z,6.50
2023-01-02T03:26:30.922Z,6.21
2023-01-02T03:29:01.636Z,5.92
2023-01-02T03:31:28.682Z,6.32
2023-01-02T03:34:01.874Z,6.86
2023-01-02T03:36:29.757Z,6.84
2023-01-02T03:39:16.845Z,6.60
2023-01-02T03:41:46.573Z,6.23
2023-01-02T03:44:13.483Z,5.91
2023-01-02T03:46:59.309Z,5.58
2023-01-02T03:49:38.671Z,6.06
2023-01-02T03:52:05.543Z,6.58
2023-01-02T03:54:32.979Z,6.56
2023-01-02T03:57:09.149Z,6.37
2023-01-02T03:59:46.515Z,6.07
2023-01-02T04:02:17.134Z,5.77
2023-01-02T04:04:51.198Z,5.50
2023-01-02T04:07:47.659Z,5.99
2023-01-02T04:10:15.145Z,6.88
2023-01-02T04:12:45.673Z,6.92
2023-01-02T04:15:13.248Z,6.64
2023-01-02T04:18:01.865Z,6.31
2023-01-02T04:20:31.397Z,5.94
2023-01-02T04:23:02.313Z,5.58
2023-01-02T04:25:32.088Z,5.89
2023-01-02T04:28:01.490Z,6.38
2023-01-02T04:30:29.725Z,6.42
2023-01-02T04:32:58.168Z,6.23
2023-01-02T04:35:24.989Z,5.98
2023-01-02T04:37:53.697Z,5.70
2023-01-02T04:40:38.983Z,5.45
2023-01-02T04:43:08.483Z,5.96
2023-01-02T04:45:35.393Z,6.46
2023-01-02T04:48:02.511Z,6.43
2023-01-02T04:50:29.635Z,6.18
2023-01-02T04:52:56.685Z,5.88
2023-01-02T04:55:23.675Z,5.61
2023-01-02T04:57:54.645Z,5.34
2023-01-02T05:00:21.693Z,5.75
2023-01-02T05:02:48.609Z,6.29
2023-01-02T05:05:15.597Z,6.31
2023-01-02T05:07:42.443Z,6.09
2023-01-02T05:10:10.601Z,5.83
2023-01-02T05:12:38.044Z,5.56
2023-01-02T05:15:06.997Z,5.27
2023-01-02T05:17:41.332Z,5.61
2023-01-02T05:20:10.792Z,6.12
2023-01-02T05:22:57.752Z,6.12
2023-01-02T05:25:25.606Z,5.85
2023-01-02T05:27:54.411Z,5.50
2023-01-02T05:30:21.992Z,5.21
2023-01-02T05:32:49.725Z,4.96
2023-01-02T05:35:16.818Z,5.36
2023-01-02T05:37:43.701Z,5.94
2023-01-02T05:40:11.526Z,5.95
2023-01-02T05:42:38.457Z,5.69
2023-01-02T05:45:05.895Z,5.42
2023-01-02T05:47:33.674Z,5.18
2023-01-02T05:50:00.835Z,4.98
2023-01-02T05:52:27.683Z,5.36
2023-01-02T05:54:55.030Z,5.91
2023-01-02T05:57:21.918Z,5.94
2023-01-02T05:59:48.812Z,5.72
2023-01-02T06:02:15.970Z,5.42
2023-01-02T06:04:42.926Z,5.12
2023-01-02T06:07:10.663Z,4.86
2023-01-02T06:09:37.563Z,5.21
2023-01-02T06:12:04.517Z,5.75
2023-01-02T06:14:31.637Z,5.78
2023-01-02T06:17:00.314Z,5.58
2023-01-02T06:19:27.905Z,5.31
2023-01-02T06:21:54.716Z,5.09
2023-01-02T06:24:21.638Z,4.82
2023-01-02T06:26:48.664Z,5.19
2023-01-02T06:29:15.845Z,5.71
2023-01-02T06:31:47.670Z,5.77
2023-01-02T06:34:17.952Z,5.61
2023-01-02T06:36:44.962Z,5.39
2023-01-02T06:39:12.850Z,5.14
2023-01-02T06:41:39.829Z,4.90
2023-01-02T06:44:06.819Z,5.28
2023-01-02T06:46:33.759Z,5.88
2023-01-02T06:49:00.960Z,6.02
2023-01-02T06:51:27.887Z,5.89
2023-01-02T06:53:55.739Z,5.67
2023-01-02T06:56:22.873Z,5.44
2023-01-02T06:58:49.892Z,5.24
2023-01-02T07:01:21.482Z,5.70
2023-01-02T07:03:48.769Z,6.36
2023-01-02T07:06:17.196Z,6.49
2023-01-02T07:08:44.319Z,6.35
2023-01-02T07:11:20.468Z,6.17
2023-01-02T07:13:48.031Z,6.01
2023-01-02T07:16:16.280Z,5.85
2023-01-02T07:18:43.780Z,6.33
2023-01-02T07:21:10.965Z,6.95
2023-01-02T07:23:37.847Z,7.08
2023-01-02T07:26:06.226Z,6.98
2023-01-02T07:28:33.676Z,6.75
2023-01-02T07:31:02.205Z,6.56
2023-01-02T07:33:29.572Z,6.39
2023-01-02T07:36:00.760Z,6.86
2023-01-02T07:38:27.766Z,7.48
2023-01-02T07:40:54.656Z,7.55
2023-01-02T07:43:21.562Z,7.35
2023-01-02T07:45:50.730Z,7.09
2023-01-02T07:48:18.741Z,6.82
2023-01-02T07:50:46.058Z,6.55
2023-01-02T07:53:13.246Z,6.97
2023-01-02T07:55:40.469Z,7.58
2023-01-02T07:58:07.677Z,7.68
2023-01-02T08:00:34.872Z,7.56
2023-01-02T08:03:01.783Z,7.34
2023-01-02T08:05:28.826Z,7.11
2023-01-02T08:07:57.015Z,6.89
2023-01-02T08:10:24.445Z,7.37
2023-01-02T08:12:52.315Z,7.97
2023-01-02T08:15:19.357Z,8.11
2023-01-02T08:17:46.547Z,8.03
2023-01-02T08:20:13.467Z,7.86
2023-01-02T08:22:40.283Z,7.73
2023-01-02T08:25:09.774Z,7.61
2023-01-02T08:27:37.136Z,8.20
2023-01-02T08:30:04.640Z,8.94
2023-01-02T08:32:35.893Z,9.14
2023-01-02T08:35:03.642Z,9.10
2023-01-02T08:37:30.613Z,8.97
2023-01-02T08:40:00.713Z,8.85
2023-01-02T08:42:27.672Z,8.72
2023-01-02T08:44:54.847Z,9.27
2023-01-02T08:47:23.193Z,9.94
2023-01-02T08:49:50.541Z,10.11
2023-01-02T08:52:17.400Z,10.05
2023-01-02T08:55:51.608Z,9.64
2023-01-02T08:58:18.999Z,9.61
2023-01-02T09:00:46.084Z,10.08
2023-01-02T09:03:13.079Z,10.66
2023-01-02T09:05:40.098Z,10.79
2023-01-02T09:08:07.860Z,10.68
2023-01-02T09:10:35.249Z,10.51
2023-01-02T09:13:03.744Z,10.31
2023-01-02T09:15:32.035Z,10.12
2023-01-02T09:17:59.498Z,10.65
2023-01-02T09:20:26.732Z,11.33
2023-01-02T09:22:53.683Z,11.47
2023-01-02T09:25:24.529Z,11.39
2023-01-02T09:27:52.116Z,11.23
2023-01-02T09:30:19.374Z,11.11
2023-01-02T09:32:49.262Z,10.95
2023-01-02T09:35:17.062Z,11.52
2023-01-02T09:37:44.503Z,12.20
2023-01-02T09:40:12.423Z,12.37
2023-01-02T09:42:39.863Z,12.29
2023-01-02T09:45:09.019Z,12.17
2023-01-02T09:47:36.239Z,12.06
2023-01-02T09:50:05.126Z,11.95
2023-01-02T09:52:36.802Z,12.57
2023-01-02T09:55:10.630Z,13.30
2023-01-02T09:58:10.564Z,13.52
2023-01-02T10:00:38.893Z,13.47
2023-01-02T10:03:21.705Z,13.37
2023-01-02T10:05:58.964Z,13.30
2023-01-02T10:08:36.518Z,13.26
2023-01-02T10:11:09.976Z,13.25
2023-01-02T10:16:45.105Z,14.83
2023-01-02T10:19:40.306Z,14.93
2023-01-02T10:22:09.182Z,14.88
2023-01-02T10:24:46.044Z,14.81
2023-01-02T10:27:17.216Z,14.71
2023-01-02T10:30:04.760Z,14.68
2023-01-02T10:32:33.021Z,14.68
2023-01-02T10:35:06.334Z,15.45
2023-01-02T10:37:33.949Z,16.26
2023-01-02T10:40:00.821Z,16.48
2023-01-02T10:42:27.637Z,16.44
2023-01-02T10:44:54.614Z,16.28
2023-01-02T10:47:38.308Z,16.07
2023-01-02T10:50:06.738Z,15.90
2023-01-02T10:52:35.530Z,15.78
2023-01-02T10:55:03.302Z,15.71
2023-01-02T10:57:33.195Z,15.70
2023-01-02T11:00:00.498Z,15.71
2023-01-02T11:02:32.424Z,15.70
2023-01-02T11:05:00.316Z,15.68
2023-01-02T11:07:27.233Z,15.68
2023-01-02T11:09:56.720Z,15.75
2023-01-02T11:12:27.280Z,16.05
2023-01-02T11:15:10.262Z,16.53
2023-01-02T11:17:44.165Z,17.07
2023-01-02T11:20:26.893Z,17.54
2023-01-02T11:22:55.213Z,18.15
2023-01-02T11:25:23.806Z,18.71
2023-01-02T11:27:51.538Z,19.13
2023-01-02T11:30:31.580Z,19.52
2023-01-02T11:33:22.584Z,19.93
2023-01-02T11:36:05.054Z,20.19
2023-01-02T11:38:48.412Z,20.37
2023-01-02T11:41:47.345Z,20.42
2023-01-02T11:44:26.783Z,20.45
2023-01-02T11:46:54.266Z,20.50
2023-01-02T11:49:23.633Z,20.54
2023-01-02T11:51:58.176Z,20.56
2023-01-02T11:54:40.083Z,20.67
2023-01-02T11:57:18.448Z,20.64
2023-01-02T11:59:48.048Z,20.68
2023-01-02T12:02:20.296Z,20.75
2023-01-02T12:04:50.705Z,20.85
2023-01-02T12:07:46.661Z,20.83
2023-01-02T12:10:17.151Z,20.64
2023-01-02T12:12:56.998Z,20.60
2023-01-02T12:15:42.728Z,20.60
2023-01-02T12:18:22.992Z,20.67
2023-01-02T12:20:54.418Z,20.79
2023-01-02T12:23:30.969Z,21.00
2023-01-02T12:26:25.172Z,21.15
2023-01-02T12:29:13.182Z,21.12
2023-01-02T12:32:06.842Z,21.03
2023-01-02T12:34:44.154Z,21.12
2023-01-02T12:37:17.240Z,21.28
2023-01-02T12:40:02.617Z,21.37
2023-01-02T12:43:03.541Z,21.37
2023-01-02T12:45:39.281Z,21.38
2023-01-02T12:48:19.907Z,21.41
2023-01-02T12:51:11.439Z,21.38
2023-01-02T12:54:19.512Z,21.19
2023-01-02T12:56:56.741Z,21.01
2023-01-02T12:59:35.573Z,20.85
2023-01-02T13:02:25.884Z,20.70
2023-01-02T13:04:56.762Z,20.66
2023-01-02T13:07:29.794Z,20.64
2023-01-02T13:09:56.670Z,20.68
2023-01-02T13:12:25.551Z,20.76
2023-01-02T13:14:54.162Z,20.76
2023-01-02T13:17:45.343Z,20.69
2023-01-02T13:20:50.958Z,20.58
2023-01-02T13:23:41.194Z,20.41
2023-01-02T13:26:09.359Z,20.26
2023-01-02T13:28:44.097Z,20.09
2023-01-02T13:31:44.642Z,19.94
2023-01-02T13:33:58.763Z,19.76
2023-01-02T13:36:39.676Z,19.53
2023-01-02T13:39:17.706Z,19.26
2023-01-02T13:42:21.797Z,18.99
2023-01-02T13:44:53.727Z,18.67
2023-01-02T13:47:25.574Z,18.38
2023-01-02T13:50:20.028Z,18.11
2023-01-02T13:53:09.995Z,17.79
2023-01-02T13:55:57.329Z,17.43
2023-01-02T13:58:25.695Z,17.04
2023-01-02T14:00:55.814Z,16.69
2023-01-02T14:03:23.461Z,16.37
2023-01-02T14:06:01.836Z,16.08
2023-01-02T14:08:30.839Z,15.80
2023-01-02T14:11:21.644Z,15.56
2023-01-02T14:13:51.209Z,15.29
2023-01-02T14:16:41.338Z,15.09
2023-01-02T14:19:14.028Z,14.84
2023-01-02T14:21:54.204Z,14.63
2023-01-02T14:24:41.293Z,14.40
2023-01-02T14:27:27.792Z,14.07
2023-01-02T14:30:08.877Z,13.72
2023-01-02T14:32:46.131Z,13.43
2023-01-02T14:35:12.990Z,13.17
2023-01-02T14:37:48.140Z,12.95
2023-01-02T14:40:21.347Z,12.74
2023-01-02T14:43:13.865Z,12.57
2023-01-02T14:45:44.940Z,12.43
2023-01-02T14:48:13.398Z,12.23
2023-01-02T14:50:40.371Z,12.63
2023-01-02T14:53:19.146Z,13.50
2023-01-02T14:55:46.282Z,13.73
2023-01-02T14:58:21.879Z,13.60
2023-01-02T15:00:48.941Z,13.34
2023-01-02T15:03:23.842Z,13.08
2023-01-02T15:05:56.504Z,12.81
2023-01-02T15:08:31.848Z,12.55
2023-01-02T15:11:20.596Z,12.27
2023-01-02T15:14:04.498Z,11.99
2023-01-02T15:16:34.647Z,11.67
2023-01-02T15:19:02.180Z,11.36
2023-01-02T15:21:31.643Z,11.75
2023-01-02T15:24:00.163Z,12.32
2023-01-02T15:26:32.986Z,12.36
2023-01-02T15:29:03.650Z,12.16
2023-01-02T15:31:30.656Z,11.86
2023-01-02T15:34:00.371Z,11.58
2023-01-02T15:36:37.325Z,11.33
2023-01-02T15:39:06.964Z,11.04
2023-01-02T15:41:41.311Z,10.78
2023-01-02T15:44:29.062Z,10.54
2023-01-02T15:46:56.470Z,10.28
2023-01-02T15:49:23.774Z,10.84
2023-01-02T15:51:51.372Z,11.43
2023-01-02T15:54:18.753Z,11.47
2023-01-02T15:56:45.692Z,11.29
2023-01-02T15:59:28.901Z,11.03
2023-01-02T16:01:56.304Z,10.68
2023-01-02T16:04:25.051Z,10.40
2023-01-02T16:06:52.087Z,10.20
2023-01-02T16:09:24.200Z,10.00
2023-01-02T16:11:53.417Z,10.44
2023-01-02T16:14:38.973Z,11.00
2023-01-02T16:17:27.921Z,11.01
2023-01-02T16:19:58.784Z,10.71
2023-01-02T16:22:31.316Z,10.34
2023-01-02T16:25:13.273Z,10.00
2023-01-02T16:27:48.190Z,9.69
2023-01-02T16:30:38.186Z,9.43
2023-01-02T16:33:34.355Z,9.20
2023-01-02T16:36:04.269Z,9.97
2023-01-02T16:38:53.142Z,10.49
2023-01-02T16:41:34.084Z,10.47
2023-01-02T16:44:01.727Z,10.20
2023-01-02T16:46:28.928Z,9.84
2023-01-02T16:49:01.347Z,9.49
2023-01-02T16:51:32.367Z,9.19
2023-01-02T16:53:59.483Z,8.91
2023-01-02T16:56:26.522Z,9.23
2023-01-02T16:58:53.582Z,9.74
2023-01-02T17:01:20.839Z,9.78
2023-01-02T17:03:47.862Z,9.55
2023-01-02T17:06:15.966Z,9.27
2023-01-02T17:08:42.926Z,9.05
2023-01-02T17:11:15.187Z,8.87
2023-01-02T17:13:42.675Z,8.64
2023-01-02T17:16:09.797Z,9.08
2023-01-02T17:18:36.856Z,9.64
2023-01-02T17:21:03.901Z,9.69
2023-01-02T17:23:30.896Z,9.48
2023-01-02T17:25:57.905Z,9.20
2023-01-02T17:28:24.992Z,8.88
2023-01-02T17:30:52.131Z,8.59
2023-01-02T17:33:20.073Z,8.35
2023-01-02T17:35:47.732Z,8.77
2023-01-02T17:38:14.812Z,9.35
2023-01-02T17:40:42.478Z,9.42
2023-01-02T17:43:09.333Z,9.23
2023-01-02T17:45:36.201Z,8.95
2023-01-02T17:48:11.171Z,8.67
2023-01-02T17:50:38.985Z,8.41
2023-01-02T17:53:07.563Z,8.20
2023-01-02T17:55:34.902Z,8.66
2023-01-02T17:58:03.575Z,9.27
2023-01-02T18:00:30.598Z,9.36
2023-01-02T18:02:57.624Z,9.21
2023-01-02T18:05:24.505Z,8.98
2023-01-02T18:07:53.692Z,8.71
2023-01-02T18:10:21.463Z,8.37
2023-01-02T18:12:50.474Z,8.07
2023-01-02T18:15:20.304Z,8.53
2023-01-02T18:17:47.831Z,9.16
2023-01-02T18:20:20.433Z,9.26
2023-01-02T18:22:50.130Z,9.09
2023-01-02T18:25:24.443Z,8.86
2023-01-02T18:27:51.816Z,8.57
2023-01-02T18:30:23.839Z,8.31
2023-01-02T18:33:10.939Z,8.76
2023-01-02T18:35:56.597Z,9.27
2023-01-02T18:38:30.822Z,9.13
2023-01-02T18:40:57.840Z,8.81
2023-01-02T18:43:24.817Z,8.46
2023-01-02T18:45:54.738Z,8.12
2023-01-02T18:48:22.062Z,7.80
2023-01-02T18:51:00.132Z,7.52
2023-01-02T18:53:35.444Z,7.99
2023-01-02T18:56:11.363Z,8.53
2023-01-02T18:58:44.164Z,8.49
2023-01-02T19:01:24.888Z,8.22
2023-01-02T19:03:56.771Z,7.88
2023-01-02T19:06:25.903Z,7.59
2023-01-02T19:08:52.893Z,7.32
2023-01-02T19:11:49.829Z,7.07
2023-01-02T19:14:18.397Z,7.69
2023-01-02T19:16:45.325Z,8.15
2023-01-02T19:19:24.136Z,8.09
2023-01-02T19:21:51.324Z,7.84
2023-01-02T19:24:20.271Z,7.57
2023-01-02T19:26:48.969Z,7.25
2023-01-02T19:29:22.777Z,6.93
2023-01-02T19:32:02.287Z,7.30
2023-01-02T19:34:45.833Z,7.81
2023-01-02T19:37:12.954Z,7.78
2023-01-02T19:39:54.301Z,7.57
2023-01-02T19:42:22.293Z,7.27
2023-01-02T19:44:55.545Z,6.99
2023-01-02T19:47:24.534Z,6.76
2023-01-02T19:49:51.664Z,7.26
2023-01-02T19:52:19.407Z,7.86
2023-01-02T19:54:46.437Z,7.88
2023-01-02T19:57:13.705Z,7.66
2023-01-02T19:59:45.448Z,7.42
2023-01-02T20:02:13.525Z,7.14
2023-01-02T20:04:42.616Z,6.88
2023-01-02T20:07:09.512Z,7.24
2023-01-02T20:09:36.880Z,7.77
2023-01-02T20:12:23.049Z,7.83
2023-01-02T20:14:49.979Z,7.55
2023-01-02T20:17:16.885Z,7.17
2023-01-02T20:19:43.733Z,6.85
2023-01-02T20:22:10.675Z,6.56
2023-01-02T20:24:39.858Z,6.90
2023-01-02T20:27:07.716Z,7.37
2023-01-02T20:29:34.571Z,7.38
2023-01-02T20:32:02.240Z,7.16
2023-01-02T20:34:29.817Z,6.88
2023-01-02T20:36:57.999Z,6.63
2023-01-02T20:39:27.441Z,6.37
2023-01-02T20:41:54.381Z,6.77
2023-01-02T20:44:21.246Z,7.31
2023-01-02T20:46:48.125Z,7.33
2023-01-02T20:49:15.269Z,7.12
2023-01-02T20:51:42.312Z,6.81
2023-01-02T20:54:10.061Z,6.52
2023-01-02T20:56:36.920Z,6.25
2023-01-02T20:59:03.867Z,6.60
2023-01-02T21:01:30.865Z,7.10
2023-01-02T21:03:58.946Z,7.09
2023-01-02T21:06:25.947Z,6.85
2023-01-02T21:08:53.591Z,6.54
2023-01-02T21:11:20.439Z,6.25
2023-01-02T21:13:47.391Z,5.97
2023-01-02T21:16:14.795Z,6.35
2023-01-02T21:18:42.798Z,6.87
2023-01-02T21:21:16.398Z,6.90
2023-01-02T21:23:43.541Z,6.70
2023-01-02T21:26:12.271Z,6.40
2023-01-02T21:28:39.168Z,6.05
2023-01-02T21:31:06.855Z,5.75
2023-01-02T21:33:33.757Z,6.08
2023-01-02T21:36:01.643Z,6.58
2023-01-02T21:38:29.635Z,6.63
2023-01-02T21:41:16.739Z,6.47
2023-01-02T21:43:44.627Z,6.22
2023-01-02T21:46:11.659Z,5.99
2023-01-02T21:48:39.630Z,5.74
2023-01-02T21:51:08.465Z,6.18
2023-01-02T21:53:36.748Z,6.73
2023-01-02T21:56:03.925Z,6.74
2023-01-02T21:58:31.417Z,6.53
2023-01-02T22:00:58.489Z,6.26
2023-01-02T22:03:25.539Z,5.97
2023-01-02T22:05:53.830Z,5.71
2023-01-02T22:08:21.202Z,6.07
2023-01-02T22:10:49.093Z,6.55
2023-01-02T22:13:16.408Z,6.60
2023-01-02T22:15:45.713Z,6.41
2023-01-02T22:18:25.672Z,6.11
2023-01-02T22:20:52.665Z,5.85
2023-01-02T22:23:20.193Z,5.59
2023-01-02T22:25:47.138Z,6.01
2023-01-02T22:28:13.948Z,6.56
2023-01-02T22:30:40.887Z,6.50
2023-01-02T22:33:07.774Z,6.22
2023-01-02T22:35:35.059Z,5.90
2023-01-02T22:38:02.063Z,5.59
2023-01-02T22:40:29.261Z,5.32
2023-01-02T22:43:05.427Z,5.70
2023-01-02T22:45:35.982Z,6.25
2023-01-02T22:48:05.909Z,6.25
2023-01-02T22:50:40.293Z,5.97
2023-01-02T22:53:11.627Z,5.64
2023-01-02T22:55:38.525Z,5.34
2023-01-02T22:58:06.894Z,5.03
2023-01-02T23:00:34.776Z,5.43
2023-01-02T23:03:01.800Z,5.98
2023-01-02T23:05:28.747Z,6.03
2023-01-02T23:07:55.759Z,5.81
2023-01-02T23:10:22.823Z,5.51
2023-01-02T23:12:50.045Z,5.26
2023-01-02T23:15:17.080Z,4.97
2023-01-02T23:18:03.854Z,5.39
2023-01-02T23:20:30.835Z,5.96
2023-01-02T23:22:57.663Z,5.94
2023-01-02T23:25:24.587Z,5.60
2023-01-02T23:27:51.740Z,5.26
2023-01-02T23:30:19.365Z,4.99
2023-01-02T23:32:46.380Z,4.72
2023-01-02T23:35:13.283Z,5.09
2023-01-02T23:37:43.232Z,5.61
2023-01-02T23:40:10.862Z,5.62
2023-01-02T23:42:37.900Z,5.45
2023-01-02T23:45:07.861Z,5.18
2023-01-02T23:47:34.965Z,4.88
2023-01-02T23:50:01.922Z,4.61
2023-01-02T23:52:28.934Z,4.97
2023-01-02T23:54:55.766Z,5.43
2023-01-02T23:57:22.881Z,5.46
2023-01-02T23:59:50.247Z,5.24
